sensor_id;sensor_type;location;lat;lon;timestamp;P1;durP1;ratioP1;P2;durP2;ratioP2
37459;SDS011;23318;50.966;5.284;2023-10-09T00:00:05;21.90;;;5.80;;
37459;SDS011;23318;50.966;5.284;2023-10-09T00:02:50;7.43;;;5.00;;
37459;SDS011;23318;50.966;5.284;2023-10-09T00:05:15;12.10;;;6.30;;
37459;SDS011;23318;50.966;5.284;2023-10-09T00:07:53;12.50;;;5.45;;
37459;SDS011;23318;50.966;5.284;2023-10-09T00:10:22;8.93;;;4.95;;
37459;SDS011;23318;50.966;5.284;2023-10-09T00:12:50;11.10;;;5.53;;
37459;SDS011;23318;50.966;5.284;2023-10-09T00:15:16;9.27;;;5.82;;
37459;SDS011;23318;50.966;5.284;2023-10-09T00:17:52;12.82;;;5.68;;
37459;SDS011;23318;50.966;5.284;2023-10-09T00:20:21;11.13;;;4.95;;
37459;SDS011;23318;50.966;5.284;2023-10-09T00:22:50;9.00;;;5.45;;
37459;SDS011;23318;50.966;5.284;2023-10-09T00:25:16;12.93;;;5.75;;
37459;SDS011;23318;50.966;5.284;2023-10-09T00:27:53;14.27;;;5.72;;
37459;SDS011;23318;50.966;5.284;2023-10-09T00:30:19;10.65;;;5.90;;
37459;SDS011;23318;50.966;5.284;2023-10-09T00:32:46;11.00;;;5.43;;
37459;SDS011;23318;50.966;5.284;2023-10-09T00:35:32;13.02;;;6.15;;
37459;SDS011;23318;50.966;5.284;2023-10-09T00:38:02;11.15;;;5.75;;
37459;SDS011;23318;50.966;5.284;2023-10-09T00:40:39;10.38;;;5.70;;
37459;SDS011;23318;50.966;5.284;2023-10-09T00:43:11;9.73;;;5.78;;
37459;SDS011;23318;50.966;5.284;2023-10-09T00:45:38;8.25;;;5.63;;
37459;SDS011;23318;50.966;5.284;2023-10-09T00:48:09;12.32;;;5.93;;
37459;SDS011;23318;50.966;5.284;2023-10-09T00:50:39;10.27;;;5.88;;
37459;SDS011;23318;50.966;5.284;2023-10-09T00:53:11;13.48;;;6.80;;
37459;SDS011;23318;50.966;5.284;2023-10-09T00:55:43;9.57;;;5.13;;
37459;SDS011;23318;50.966;5.284;2023-10-09T00:58:11;12.70;;;5.60;;
37459;SDS011;23318;50.966;5.284;2023-10-09T01:00:39;11.50;;;6.22;;
37459;SDS011;23318;50.966;5.284;2023-10-09T01:03:09;10.10;;;5.47;;
37459;SDS011;23318;50.966;5.284;2023-10-09T01:06:01;12.27;;;6.18;;
37459;SDS011;23318;50.966;5.284;2023-10-09T01:08:33;14.20;;;7.13;;
37459;SDS011;23318;50.966;5.284;2023-10-09T01:11:05;10.05;;;6.18;;
37459;SDS011;23318;50.966;5.284;2023-10-09T01:13:47;10.88;;;5.70;;
37459;SDS011;23318;50.966;5.284;2023-10-09T01:16:13;11.43;;;6.32;;
37459;SDS011;23318;50.966;5.284;2023-10-09T01:18:54;12.57;;;5.85;;
37459;SDS011;23318;50.966;5.284;2023-10-09T01:21:23;15.25;;;6.35;;
37459;SDS011;23318;50.966;5.284;2023-10-09T01:23:52;12.82;;;6.45;;
37459;SDS011;23318;50.966;5.284;2023-10-09T01:26:46;8.68;;;5.93;;
37459;SDS011;23318;50.966;5.284;2023-10-09T01:29:16;11.18;;;6.10;;
37459;SDS011;23318;50.966;5.284;2023-10-09T01:31:50;12.27;;;6.13;;
37459;SDS011;23318;50.966;5.284;2023-10-09T01:34:35;12.23;;;6.32;;
37459;SDS011;23318;50.966;5.284;2023-10-09T01:37:04;11.40;;;6.35;;
37459;SDS011;23318;50.966;5.284;2023-10-09T01:39:52;11.93;;;6.13;;
37459;SDS011;23318;50.966;5.284;2023-10-09T01:42:19;13.48;;;6.68;;
37459;SDS011;23318;50.966;5.284;2023-10-09T01:45:10;11.02;;;6.30;;
37459;SDS011;23318;50.966;5.284;2023-10-09T01:47:36;12.32;;;6.88;;
37459;SDS011;23318;50.966;5.284;2023-10-09T01:50:03;12.02;;;6.57;;
37459;SDS011;23318;50.966;5.284;2023-10-09T01:52:30;11.38;;;6.60;;
37459;SDS011;23318;50.966;5.284;2023-10-09T01:54:56;11.10;;;6.45;;
37459;SDS011;23318;50.966;5.284;2023-10-09T01:57:28;12.65;;;6.60;;
37459;SDS011;23318;50.966;5.284;2023-10-09T01:59:55;13.57;;;6.35;;
37459;SDS011;23318;50.966;5.284;2023-10-09T02:02:24;10.02;;;5.97;;
37459;SDS011;23318;50.966;5.284;2023-10-09T02:05:00;12.55;;;5.90;;
37459;SDS011;23318;50.966;5.284;2023-10-09T02:07:49;15.65;;;7.03;;
37459;SDS011;23318;50.966;5.284;2023-10-09T02:10:19;11.43;;;6.90;;
37459;SDS011;23318;50.966;5.284;2023-10-09T02:12:58;11.95;;;6.50;;
37459;SDS011;23318;50.966;5.284;2023-10-09T02:15:28;11.38;;;5.90;;
37459;SDS011;23318;50.966;5.284;2023-10-09T02:18:10;11.85;;;6.97;;
37459;SDS011;23318;50.966;5.284;2023-10-09T02:23:24;10.77;;;6.43;;
37459;SDS011;23318;50.966;5.284;2023-10-09T02:25:57;10.23;;;6.13;;
37459;SDS011;23318;50.966;5.284;2023-10-09T02:28:26;11.65;;;6.55;;
37459;SDS011;23318;50.966;5.284;2023-10-09T02:30:57;14.15;;;7.00;;
37459;SDS011;23318;50.966;5.284;2023-10-09T02:33:25;13.93;;;5.90;;
37459;SDS011;23318;50.966;5.284;2023-10-09T02:35:55;8.98;;;5.68;;
37459;SDS011;23318;50.966;5.284;2023-10-09T02:38:30;13.38;;;6.32;;
37459;SDS011;23318;50.966;5.284;2023-10-09T02:40:59;12.60;;;6.70;;
37459;SDS011;23318;50.966;5.284;2023-10-09T02:43:28;10.85;;;6.50;;
37459;SDS011;23318;50.966;5.284;2023-10-09T02:45:59;10.52;;;6.80;;
37459;SDS011;23318;50.966;5.284;2023-10-09T02:48:38;13.75;;;6.63;;
37459;SDS011;23318;50.966;5.284;2023-10-09T02:51:07;9.50;;;6.43;;
37459;SDS011;23318;50.966;5.284;2023-10-09T02:53:40;9.93;;;6.10;;
37459;SDS011;23318;50.966;5.284;2023-10-09T02:56:05;13.38;;;6.72;;
37459;SDS011;23318;50.966;5.284;2023-10-09T02:58:37;12.38;;;6.50;;
37459;SDS011;23318;50.966;5.284;2023-10-09T03:01:08;10.43;;;6.57;;
37459;SDS011;23318;50.966;5.284;2023-10-09T03:03:39;13.30;;;6.50;;
37459;SDS011;23318;50.966;5.284;2023-10-09T03:06:10;10.90;;;5.88;;
37459;SDS011;23318;50.966;5.284;2023-10-09T03:08:53;11.13;;;6.28;;
37459;SDS011;23318;50.966;5.284;2023-10-09T03:11:19;9.75;;;5.82;;
37459;SDS011;23318;50.966;5.284;2023-10-09T03:13:45;10.02;;;6.00;;
37459;SDS011;23318;50.966;5.284;2023-10-09T03:16:12;11.18;;;5.95;;
37459;SDS011;23318;50.966;5.284;2023-10-09T03:18:41;15.05;;;8.02;;
37459;SDS011;23318;50.966;5.284;2023-10-09T03:21:07;12.60;;;6.88;;
37459;SDS011;23318;50.966;5.284;2023-10-09T03:23:36;15.88;;;6.75;;
37459;SDS011;23318;50.966;5.284;2023-10-09T03:26:02;12.10;;;6.72;;
37459;SDS011;23318;50.966;5.284;2023-10-09T03:28:29;13.77;;;6.30;;
37459;SDS011;23318;50.966;5.284;2023-10-09T03:30:55;11.57;;;6.90;;
37459;SDS011;23318;50.966;5.284;2023-10-09T03:33:24;11.45;;;6.70;;
37459;SDS011;23318;50.966;5.284;2023-10-09T03:35:50;14.40;;;6.35;;
37459;SDS011;23318;50.966;5.284;2023-10-09T03:38:16;13.25;;;6.50;;
37459;SDS011;23318;50.966;5.284;2023-10-09T03:40:44;14.38;;;6.78;;
37459;SDS011;23318;50.966;5.284;2023-10-09T03:43:13;9.82;;;6.13;;
37459;SDS011;23318;50.966;5.284;2023-10-09T03:45:39;10.70;;;6.22;;
37459;SDS011;23318;50.966;5.284;2023-10-09T03:48:10;13.77;;;6.55;;
37459;SDS011;23318;50.966;5.284;2023-10-09T03:50:45;10.50;;;6.22;;
37459;SDS011;23318;50.966;5.284;2023-10-09T03:53:12;18.23;;;8.15;;
37459;SDS011;23318;50.966;5.284;2023-10-09T03:55:39;11.80;;;6.30;;
37459;SDS011;23318;50.966;5.284;2023-10-09T03:58:08;12.32;;;6.95;;
37459;SDS011;23318;50.966;5.284;2023-10-09T04:00:37;14.88;;;7.38;;
37459;SDS011;23318;50.966;5.284;2023-10-09T04:03:14;12.63;;;7.90;;
37459;SDS011;23318;50.966;5.284;2023-10-09T04:05:40;12.68;;;7.22;;
37459;SDS011;23318;50.966;5.284;2023-10-09T04:08:08;13.57;;;7.13;;
37459;SDS011;23318;50.966;5.284;2023-10-09T04:10:44;12.95;;;6.55;;
37459;SDS011;23318;50.966;5.284;2023-10-09T04:13:17;11.63;;;6.78;;
37459;SDS011;23318;50.966;5.284;2023-10-09T04:15:47;14.85;;;7.50;;
37459;SDS011;23318;50.966;5.284;2023-10-09T04:18:14;11.55;;;6.63;;
37459;SDS011;23318;50.966;5.284;2023-10-09T04:20:41;12.18;;;7.75;;
37459;SDS011;23318;50.966;5.284;2023-10-09T04:23:36;17.50;;;7.13;;
37459;SDS011;23318;50.966;5.284;2023-10-09T04:26:22;11.90;;;6.65;;
37459;SDS011;23318;50.966;5.284;2023-10-09T04:28:50;13.07;;;6.68;;
37459;SDS011;23318;50.966;5.284;2023-10-09T04:31:20;14.10;;;7.18;;
37459;SDS011;23318;50.966;5.284;2023-10-09T04:33:56;10.85;;;7.05;;
37459;SDS011;23318;50.966;5.284;2023-10-09T04:36:43;13.95;;;7.47;;
37459;SDS011;23318;50.966;5.284;2023-10-09T04:39:11;16.08;;;7.00;;
37459;SDS011;23318;50.966;5.284;2023-10-09T04:41:37;15.63;;;7.55;;
37459;SDS011;23318;50.966;5.284;2023-10-09T04:44:09;12.52;;;6.95;;
37459;SDS011;23318;50.966;5.284;2023-10-09T04:46:47;11.32;;;6.88;;
37459;SDS011;23318;50.966;5.284;2023-10-09T04:49:33;12.32;;;6.75;;
37459;SDS011;23318;50.966;5.284;2023-10-09T04:52:17;11.93;;;6.97;;
37459;SDS011;23318;50.966;5.284;2023-10-09T04:54:56;14.30;;;8.10;;
37459;SDS011;23318;50.966;5.284;2023-10-09T04:57:35;12.93;;;7.57;;
37459;SDS011;23318;50.966;5.284;2023-10-09T05:00:08;13.32;;;7.80;;
37459;SDS011;23318;50.966;5.284;2023-10-09T05:02:53;12.82;;;7.03;;
37459;SDS011;23318;50.966;5.284;2023-10-09T05:05:23;12.93;;;6.82;;
37459;SDS011;23318;50.966;5.284;2023-10-09T05:08:09;12.57;;;6.63;;
37459;SDS011;23318;50.966;5.284;2023-10-09T05:10:44;16.80;;;7.63;;
37459;SDS011;23318;50.966;5.284;2023-10-09T05:16:06;15.73;;;7.40;;
37459;SDS011;23318;50.966;5.284;2023-10-09T05:18:50;15.27;;;8.07;;
37459;SDS011;23318;50.966;5.284;2023-10-09T05:21:37;12.88;;;7.20;;
37459;SDS011;23318;50.966;5.284;2023-10-09T05:24:07;12.57;;;7.30;;
37459;SDS011;23318;50.966;5.284;2023-10-09T05:26:40;15.32;;;7.45;;
37459;SDS011;23318;50.966;5.284;2023-10-09T05:34:30;14.55;;;8.60;;
37459;SDS011;23318;50.966;5.284;2023-10-09T05:37:02;15.00;;;7.65;;
37459;SDS011;23318;50.966;5.284;2023-10-09T05:39:50;17.55;;;7.28;;
37459;SDS011;23318;50.966;5.284;2023-10-09T05:42:25;16.38;;;7.90;;
37459;SDS011;23318;50.966;5.284;2023-10-09T05:45:07;17.08;;;8.32;;
37459;SDS011;23318;50.966;5.284;2023-10-09T05:47:45;18.40;;;8.57;;
37459;SDS011;23318;50.966;5.284;2023-10-09T05:50:23;15.73;;;7.97;;
37459;SDS011;23318;50.966;5.284;2023-10-09T05:52:50;13.70;;;7.68;;
37459;SDS011;23318;50.966;5.284;2023-10-09T05:55:16;12.35;;;7.30;;
37459;SDS011;23318;50.966;5.284;2023-10-09T05:57:55;15.23;;;8.20;;
37459;SDS011;23318;50.966;5.284;2023-10-09T06:00:39;16.08;;;7.03;;
37459;SDS011;23318;50.966;5.284;2023-10-09T06:06:09;12.75;;;7.22;;
37459;SDS011;23318;50.966;5.284;2023-10-09T06:08:43;15.77;;;7.53;;
37459;SDS011;23318;50.966;5.284;2023-10-09T06:11:09;14.80;;;7.38;;
37459;SDS011;23318;50.966;5.284;2023-10-09T06:13:56;11.77;;;7.05;;
37459;SDS011;23318;50.966;5.284;2023-10-09T06:16:32;13.40;;;7.63;;
37459;SDS011;23318;50.966;5.284;2023-10-09T06:19:12;14.68;;;8.05;;
37459;SDS011;23318;50.966;5.284;2023-10-09T06:21:45;19.38;;;8.23;;
37459;SDS011;23318;50.966;5.284;2023-10-09T06:24:26;15.27;;;7.65;;
37459;SDS011;23318;50.966;5.284;2023-10-09T06:27:07;16.67;;;8.00;;
37459;SDS011;23318;50.966;5.284;2023-10-09T06:29:37;15.45;;;8.25;;
37459;SDS011;23318;50.966;5.284;2023-10-09T06:32:14;13.50;;;8.13;;
37459;SDS011;23318;50.966;5.284;2023-10-09T06:34:56;13.95;;;8.23;;
37459;SDS011;23318;50.966;5.284;2023-10-09T06:37:50;13.80;;;7.97;;
37459;SDS011;23318;50.966;5.284;2023-10-09T06:40:32;14.50;;;7.82;;
37459;SDS011;23318;50.966;5.284;2023-10-09T06:45:35;15.82;;;8.02;;
37459;SDS011;23318;50.966;5.284;2023-10-09T06:48:13;13.77;;;7.50;;
37459;SDS011;23318;50.966;5.284;2023-10-09T06:50:57;16.00;;;7.78;;
37459;SDS011;23318;50.966;5.284;2023-10-09T06:53:37;14.75;;;7.25;;
37459;SDS011;23318;50.966;5.284;2023-10-09T06:56:22;20.38;;;8.68;;
37459;SDS011;23318;50.966;5.284;2023-10-09T06:58:54;16.00;;;7.88;;
37459;SDS011;23318;50.966;5.284;2023-10-09T07:01:22;13.88;;;7.88;;
37459;SDS011;23318;50.966;5.284;2023-10-09T07:04:08;16.95;;;7.68;;
37459;SDS011;23318;50.966;5.284;2023-10-09T07:06:52;13.65;;;7.68;;
37459;SDS011;23318;50.966;5.284;2023-10-09T07:09:18;20.95;;;7.82;;
37459;SDS011;23318;50.966;5.284;2023-10-09T07:11:50;18.35;;;8.32;;
37459;SDS011;23318;50.966;5.284;2023-10-09T07:14:17;14.35;;;7.60;;
37459;SDS011;23318;50.966;5.284;2023-10-09T07:16:58;15.30;;;7.32;;
37459;SDS011;23318;50.966;5.284;2023-10-09T07:19:41;16.02;;;7.68;;
37459;SDS011;23318;50.966;5.284;2023-10-09T07:22:16;15.38;;;7.65;;
37459;SDS011;23318;50.966;5.284;2023-10-09T07:24:45;16.63;;;8.60;;
37459;SDS011;23318;50.966;5.284;2023-10-09T07:27:24;16.90;;;8.07;;
37459;SDS011;23318;50.966;5.284;2023-10-09T07:30:12;17.83;;;7.55;;
37459;SDS011;23318;50.966;5.284;2023-10-09T07:32:58;14.63;;;7.72;;
37459;SDS011;23318;50.966;5.284;2023-10-09T07:38:34;12.43;;;7.55;;
37459;SDS011;23318;50.966;5.284;2023-10-09T07:41:03;19.85;;;8.90;;
37459;SDS011;23318;50.966;5.284;2023-10-09T07:43:33;15.98;;;8.23;;
37459;SDS011;23318;50.966;5.284;2023-10-09T07:46:09;13.52;;;7.22;;
37459;SDS011;23318;50.966;5.284;2023-10-09T07:48:57;15.07;;;8.65;;
37459;SDS011;23318;50.966;5.284;2023-10-09T07:51:25;19.38;;;8.85;;
37459;SDS011;23318;50.966;5.284;2023-10-09T07:53:58;18.42;;;8.00;;
37459;SDS011;23318;50.966;5.284;2023-10-09T07:59:04;14.30;;;8.00;;
37459;SDS011;23318;50.966;5.284;2023-10-09T08:01:36;13.20;;;7.85;;
37459;SDS011;23318;50.966;5.284;2023-10-09T08:04:22;15.23;;;7.80;;
37459;SDS011;23318;50.966;5.284;2023-10-09T08:07:15;18.45;;;7.72;;
37459;SDS011;23318;50.966;5.284;2023-10-09T08:09:47;14.27;;;7.80;;
37459;SDS011;23318;50.966;5.284;2023-10-09T08:12:16;14.27;;;8.30;;
37459;SDS011;23318;50.966;5.284;2023-10-09T08:15:04;16.92;;;8.00;;
37459;SDS011;23318;50.966;5.284;2023-10-09T08:17:53;16.45;;;8.25;;
37459;SDS011;23318;50.966;5.284;2023-10-09T08:20:24;15.48;;;8.13;;
37459;SDS011;23318;50.966;5.284;2023-10-09T08:22:51;14.48;;;8.23;;
37459;SDS011;23318;50.966;5.284;2023-10-09T08:25:24;14.68;;;7.95;;
37459;SDS011;23318;50.966;5.284;2023-10-09T08:27:52;14.68;;;7.60;;
37459;SDS011;23318;50.966;5.284;2023-10-09T08:30:22;18.08;;;8.27;;
37459;SDS011;23318;50.966;5.284;2023-10-09T08:32:50;20.60;;;8.75;;
37459;SDS011;23318;50.966;5.284;2023-10-09T08:35:35;15.90;;;8.75;;
37459;SDS011;23318;50.966;5.284;2023-10-09T08:38:14;17.83;;;8.13;;
37459;SDS011;23318;50.966;5.284;2023-10-09T08:40:42;16.30;;;8.07;;
37459;SDS011;23318;50.966;5.284;2023-10-09T08:43:18;32.30;;;8.65;;
37459;SDS011;23318;50.966;5.284;2023-10-09T08:45:45;16.33;;;8.32;;
37459;SDS011;23318;50.966;5.284;2023-10-09T08:48:12;19.50;;;8.05;;
37459;SDS011;23318;50.966;5.284;2023-10-09T08:50:43;16.45;;;8.70;;
37459;SDS011;23318;50.966;5.284;2023-10-09T08:53:13;19.20;;;8.65;;
37459;SDS011;23318;50.966;5.284;2023-10-09T08:55:40;16.60;;;8.30;;
37459;SDS011;23318;50.966;5.284;2023-10-09T08:58:06;15.68;;;7.80;;
37459;SDS011;23318;50.966;5.284;2023-10-09T09:00:41;15.05;;;7.78;;
37459;SDS011;23318;50.966;5.284;2023-10-09T09:03:10;16.13;;;7.95;;
37459;SDS011;23318;50.966;5.284;2023-10-09T09:05:48;16.33;;;8.13;;
37459;SDS011;23318;50.966;5.284;2023-10-09T09:08:28;14.98;;;8.20;;
37459;SDS011;23318;50.966;5.284;2023-10-09T09:13:45;13.27;;;7.65;;
37459;SDS011;23318;50.966;5.284;2023-10-09T09:16:16;18.35;;;9.00;;
37459;SDS011;23318;50.966;5.284;2023-10-09T09:18:49;15.82;;;8.45;;
37459;SDS011;23318;50.966;5.284;2023-10-09T09:21:17;17.83;;;10.35;;
37459;SDS011;23318;50.966;5.284;2023-10-09T09:24:08;18.45;;;8.77;;
37459;SDS011;23318;50.966;5.284;2023-10-09T09:26:47;15.27;;;8.80;;
37459;SDS011;23318;50.966;5.284;2023-10-09T09:29:24;15.00;;;8.63;;
37459;SDS011;23318;50.966;5.284;2023-10-09T09:32:29;15.07;;;8.90;;
37459;SDS011;23318;50.966;5.284;2023-10-09T09:35:02;19.58;;;8.43;;
37459;SDS011;23318;50.966;5.284;2023-10-09T09:37:31;15.63;;;8.50;;
37459;SDS011;23318;50.966;5.284;2023-10-09T09:40:08;13.20;;;7.72;;
37459;SDS011;23318;50.966;5.284;2023-10-09T09:42:52;14.52;;;7.95;;
37459;SDS011;23318;50.966;5.284;2023-10-09T09:45:21;14.70;;;7.78;;
37459;SDS011;23318;50.966;5.284;2023-10-09T09:47:49;17.65;;;8.07;;
37459;SDS011;23318;50.966;5.284;2023-10-09T09:50:17;13.82;;;7.95;;
37459;SDS011;23318;50.966;5.284;2023-10-09T09:52:54;16.40;;;8.30;;
37459;SDS011;23318;50.966;5.284;2023-10-09T09:55:24;15.23;;;7.68;;
37459;SDS011;23318;50.966;5.284;2023-10-09T09:57:56;13.40;;;7.85;;
37459;SDS011;23318;50.966;5.284;2023-10-09T10:00:25;17.63;;;7.85;;
37459;SDS011;23318;50.966;5.284;2023-10-09T10:03:03;15.90;;;7.82;;
37459;SDS011;23318;50.966;5.284;2023-10-09T10:05:34;14.20;;;7.80;;
37459;SDS011;23318;50.966;5.284;2023-10-09T10:08:02;13.02;;;7.32;;
37459;SDS011;23318;50.966;5.284;2023-10-09T10:10:48;17.50;;;7.53;;
37459;SDS011;23318;50.966;5.284;2023-10-09T10:18:54;12.85;;;6.85;;
37459;SDS011;23318;50.966;5.284;2023-10-09T10:21:46;11.90;;;6.70;;
37459;SDS011;23318;50.966;5.284;2023-10-09T10:30:34;12.80;;;7.65;;
37459;SDS011;23318;50.966;5.284;2023-10-09T10:35:16;14.10;;;6.80;;
37459;SDS011;23318;50.966;5.284;2023-10-09T10:37:45;14.43;;;5.95;;
37459;SDS011;23318;50.966;5.284;2023-10-09T10:40:32;12.93;;;6.68;;
37459;SDS011;23318;50.966;5.284;2023-10-09T10:43:04;12.15;;;6.60;;
37459;SDS011;23318;50.966;5.284;2023-10-09T10:45:39;10.85;;;5.65;;
37459;SDS011;23318;50.966;5.284;2023-10-09T10:48:11;13.43;;;6.20;;
37459;SDS011;23318;50.966;5.284;2023-10-09T10:50:56;11.27;;;6.00;;
37459;SDS011;23318;50.966;5.284;2023-10-09T10:53:23;14.65;;;6.35;;
37459;SDS011;23318;50.966;5.284;2023-10-09T10:55:59;12.18;;;6.50;;
37459;SDS011;23318;50.966;5.284;2023-10-09T10:58:38;9.43;;;4.90;;
37459;SDS011;23318;50.966;5.284;2023-10-09T11:01:34;11.40;;;5.50;;
37459;SDS011;23318;50.966;5.284;2023-10-09T11:04:22;13.38;;;6.15;;
37459;SDS011;23318;50.966;5.284;2023-10-09T11:06:58;14.18;;;6.13;;
37459;SDS011;23318;50.966;5.284;2023-10-09T11:09:54;10.82;;;4.97;;
37459;SDS011;23318;50.966;5.284;2023-10-09T11:12:30;8.88;;;4.93;;
37459;SDS011;23318;50.966;5.284;2023-10-09T11:15:07;10.88;;;5.30;;
37459;SDS011;23318;50.966;5.284;2023-10-09T11:20:51;9.75;;;5.25;;
37459;SDS011;23318;50.966;5.284;2023-10-09T11:23:23;11.27;;;5.43;;
37459;SDS011;23318;50.966;5.284;2023-10-09T11:25:58;11.32;;;5.15;;
37459;SDS011;23318;50.966;5.284;2023-10-09T11:28:44;14.85;;;5.70;;
37459;SDS011;23318;50.966;5.284;2023-10-09T11:31:22;9.38;;;5.60;;
37459;SDS011;23318;50.966;5.284;2023-10-09T11:33:49;15.93;;;6.28;;
37459;SDS011;23318;50.966;5.284;2023-10-09T11:36:19;10.65;;;5.63;;
37459;SDS011;23318;50.966;5.284;2023-10-09T11:38:56;12.15;;;4.82;;
37459;SDS011;23318;50.966;5.284;2023-10-09T11:41:41;11.20;;;5.32;;
37459;SDS011;23318;50.966;5.284;2023-10-09T11:44:09;11.18;;;4.95;;
37459;SDS011;23318;50.966;5.284;2023-10-09T11:46:58;9.10;;;5.47;;
37459;SDS011;23318;50.966;5.284;2023-10-09T11:49:52;9.35;;;5.47;;
37459;SDS011;23318;50.966;5.284;2023-10-09T11:52:29;11.00;;;5.25;;
37459;SDS011;23318;50.966;5.284;2023-10-09T11:54:59;11.85;;;5.07;;
37459;SDS011;23318;50.966;5.284;2023-10-09T11:57:25;11.15;;;5.18;;
37459;SDS011;23318;50.966;5.284;2023-10-09T12:02:35;14.05;;;5.18;;
37459;SDS011;23318;50.966;5.284;2023-10-09T12:05:09;8.35;;;4.80;;
37459;SDS011;23318;50.966;5.284;2023-10-09T12:07:42;9.23;;;5.47;;
37459;SDS011;23318;50.966;5.284;2023-10-09T12:10:20;8.73;;;4.80;;
37459;SDS011;23318;50.966;5.284;2023-10-09T12:12:51;10.70;;;5.18;;
37459;SDS011;23318;50.966;5.284;2023-10-09T12:15:18;8.48;;;5.05;;
37459;SDS011;23318;50.966;5.284;2023-10-09T12:17:44;12.57;;;5.15;;
37459;SDS011;23318;50.966;5.284;2023-10-09T12:20:12;11.30;;;5.55;;
37459;SDS011;23318;50.966;5.284;2023-10-09T12:23:00;10.57;;;5.00;;
37459;SDS011;23318;50.966;5.284;2023-10-09T12:27:57;14.07;;;5.82;;
37459;SDS011;23318;50.966;5.284;2023-10-09T12:30:26;10.85;;;5.78;;
37459;SDS011;23318;50.966;5.284;2023-10-09T12:32:53;9.15;;;5.10;;
37459;SDS011;23318;50.966;5.284;2023-10-09T12:35:20;11.57;;;6.20;;
37459;SDS011;23318;50.966;5.284;2023-10-09T12:37:46;11.10;;;5.63;;
37459;SDS011;23318;50.966;5.284;2023-10-09T12:40:12;11.25;;;5.82;;
37459;SDS011;23318;50.966;5.284;2023-10-09T12:42:38;10.23;;;5.70;;
37459;SDS011;23318;50.966;5.284;2023-10-09T12:45:05;11.48;;;5.18;;
37459;SDS011;23318;50.966;5.284;2023-10-09T12:47:34;8.48;;;5.32;;
37459;SDS011;23318;50.966;5.284;2023-10-09T12:50:03;14.32;;;5.97;;
37459;SDS011;23318;50.966;5.284;2023-10-09T12:52:35;13.07;;;5.13;;
37459;SDS011;23318;50.966;5.284;2023-10-09T12:55:02;12.00;;;4.88;;
37459;SDS011;23318;50.966;5.284;2023-10-09T12:57:32;8.52;;;4.53;;
37459;SDS011;23318;50.966;5.284;2023-10-09T12:59:57;10.38;;;5.57;;
37459;SDS011;23318;50.966;5.284;2023-10-09T13:02:23;13.95;;;5.95;;
37459;SDS011;23318;50.966;5.284;2023-10-09T13:04:55;10.05;;;5.35;;
37459;SDS011;23318;50.966;5.284;2023-10-09T13:07:21;11.65;;;4.95;;
37459;SDS011;23318;50.966;5.284;2023-10-09T13:09:47;9.48;;;5.57;;
37459;SDS011;23318;50.966;5.284;2023-10-09T13:12:32;13.88;;;5.35;;
37459;SDS011;23318;50.966;5.284;2023-10-09T13:14:58;8.68;;;5.05;;
37459;SDS011;23318;50.966;5.284;2023-10-09T13:17:24;11.70;;;5.88;;
37459;SDS011;23318;50.966;5.284;2023-10-09T13:19:52;10.23;;;5.60;;
37459;SDS011;23318;50.966;5.284;2023-10-09T13:22:18;11.40;;;5.93;;
37459;SDS011;23318;50.966;5.284;2023-10-09T13:24:43;10.95;;;5.57;;
37459;SDS011;23318;50.966;5.284;2023-10-09T13:27:13;12.18;;;5.75;;
37459;SDS011;23318;50.966;5.284;2023-10-09T13:29:46;12.70;;;5.90;;
37459;SDS011;23318;50.966;5.284;2023-10-09T13:32:13;10.85;;;5.45;;
37459;SDS011;23318;50.966;5.284;2023-10-09T13:34:40;11.23;;;5.00;;
37459;SDS011;23318;50.966;5.284;2023-10-09T13:37:14;9.60;;;5.20;;
37459;SDS011;23318;50.966;5.284;2023-10-09T13:39:46;9.32;;;5.68;;
37459;SDS011;23318;50.966;5.284;2023-10-09T13:42:17;11.10;;;5.35;;
37459;SDS011;23318;50.966;5.284;2023-10-09T13:44:43;10.32;;;5.63;;
37459;SDS011;23318;50.966;5.284;2023-10-09T13:47:09;10.60;;;5.70;;
37459;SDS011;23318;50.966;5.284;2023-10-09T13:49:44;16.10;;;6.10;;
37459;SDS011;23318;50.966;5.284;2023-10-09T13:52:10;11.80;;;5.53;;
37459;SDS011;23318;50.966;5.284;2023-10-09T13:54:43;10.13;;;5.68;;
37459;SDS011;23318;50.966;5.284;2023-10-09T13:57:13;10.43;;;5.70;;
37459;SDS011;23318;50.966;5.284;2023-10-09T13:59:40;9.93;;;5.97;;
37459;SDS011;23318;50.966;5.284;2023-10-09T14:02:15;16.63;;;6.57;;
37459;SDS011;23318;50.966;5.284;2023-10-09T14:04:46;12.05;;;6.70;;
37459;SDS011;23318;50.966;5.284;2023-10-09T14:07:16;14.65;;;6.85;;
37459;SDS011;23318;50.966;5.284;2023-10-09T14:09:42;13.90;;;6.80;;
37459;SDS011;23318;50.966;5.284;2023-10-09T14:12:08;13.80;;;6.65;;
37459;SDS011;23318;50.966;5.284;2023-10-09T14:14:38;13.20;;;6.70;;
37459;SDS011;23318;50.966;5.284;2023-10-09T14:17:12;13.98;;;6.80;;
37459;SDS011;23318;50.966;5.284;2023-10-09T14:22:06;15.32;;;6.15;;
37459;SDS011;23318;50.966;5.284;2023-10-09T14:24:32;11.52;;;6.65;;
37459;SDS011;23318;50.966;5.284;2023-10-09T14:27:02;11.73;;;7.00;;
37459;SDS011;23318;50.966;5.284;2023-10-09T14:29:31;12.93;;;7.18;;
37459;SDS011;23318;50.966;5.284;2023-10-09T14:31:57;17.40;;;7.32;;
37459;SDS011;23318;50.966;5.284;2023-10-09T14:34:26;13.95;;;7.70;;
37459;SDS011;23318;50.966;5.284;2023-10-09T14:37:01;12.70;;;7.03;;
37459;SDS011;23318;50.966;5.284;2023-10-09T14:39:27;12.27;;;7.18;;
37459;SDS011;23318;50.966;5.284;2023-10-09T14:41:54;11.35;;;6.38;;
37459;SDS011;23318;50.966;5.284;2023-10-09T14:44:27;17.67;;;7.57;;
37459;SDS011;23318;50.966;5.284;2023-10-09T14:46:55;10.88;;;6.88;;
37459;SDS011;23318;50.966;5.284;2023-10-09T14:49:21;15.00;;;7.10;;
37459;SDS011;23318;50.966;5.284;2023-10-09T14:51:47;11.48;;;6.93;;
37459;SDS011;23318;50.966;5.284;2023-10-09T14:54:12;14.40;;;7.20;;
37459;SDS011;23318;50.966;5.284;2023-10-09T14:56:43;19.95;;;7.93;;
37459;SDS011;23318;50.966;5.284;2023-10-09T14:59:11;16.85;;;7.15;;
37459;SDS011;23318;50.966;5.284;2023-10-09T15:01:37;11.70;;;6.47;;
37459;SDS011;23318;50.966;5.284;2023-10-09T15:04:03;12.48;;;7.22;;
37459;SDS011;23318;50.966;5.284;2023-10-09T15:06:29;13.07;;;6.68;;
37459;SDS011;23318;50.966;5.284;2023-10-09T15:08:56;19.38;;;7.15;;
37459;SDS011;23318;50.966;5.284;2023-10-09T15:11:23;12.15;;;6.80;;
37459;SDS011;23318;50.966;5.284;2023-10-09T15:13:53;12.00;;;6.47;;
37459;SDS011;23318;50.966;5.284;2023-10-09T15:16:19;14.43;;;7.28;;
37459;SDS011;23318;50.966;5.284;2023-10-09T15:18:46;11.60;;;5.95;;
37459;SDS011;23318;50.966;5.284;2023-10-09T15:21:17;10.63;;;6.22;;
37459;SDS011;23318;50.966;5.284;2023-10-09T15:23:47;15.23;;;6.72;;
37459;SDS011;23318;50.966;5.284;2023-10-09T15:26:16;11.93;;;6.75;;
37459;SDS011;23318;50.966;5.284;2023-10-09T15:28:42;13.82;;;6.97;;
37459;SDS011;23318;50.966;5.284;2023-10-09T15:31:07;12.50;;;7.43;;
37459;SDS011;23318;50.966;5.284;2023-10-09T15:33:37;12.60;;;6.40;;
37459;SDS011;23318;50.966;5.284;2023-10-09T15:36:14;17.15;;;7.72;;
37459;SDS011;23318;50.966;5.284;2023-10-09T15:38:42;13.05;;;7.10;;
37459;SDS011;23318;50.966;5.284;2023-10-09T15:41:08;11.50;;;6.60;;
37459;SDS011;23318;50.966;5.284;2023-10-09T15:43:36;13.85;;;6.75;;
37459;SDS011;23318;50.966;5.284;2023-10-09T15:46:02;13.00;;;6.97;;
37459;SDS011;23318;50.966;5.284;2023-10-09T15:48:28;14.02;;;6.57;;
37459;SDS011;23318;50.966;5.284;2023-10-09T15:50:54;13.18;;;7.32;;
37459;SDS011;23318;50.966;5.284;2023-10-09T15:53:19;10.68;;;6.45;;
37459;SDS011;23318;50.966;5.284;2023-10-09T15:55:46;12.93;;;6.35;;
37459;SDS011;23318;50.966;5.284;2023-10-09T15:58:16;12.63;;;6.53;;